CYBU

Details ICAO CYBU
Name Nipawin
Region Canada
Timezone America/Regina (UTC-6.0)
Plans Departing 0
Arriving 0
Stats Elevation 1,220 ft / 372 m (AMSL)
Location 53.332447° -104.008552°
Runways 2
Magnetic Variation 8.523° E
Sunrise 2017-12-15 15:06:39 UTC / 2017-12-15 09:06:39 Local
Sunset 2017-12-15 22:38:47 UTC / 2017-12-15 16:38:47 Local
Advertisement - Login to hide

Runways

ID Width Length Bearing (true) Bearing (mag) Surface Threshold Offset Overrun Length
03 75 ft / 23 m 2,933 ft / 894 m 41.00° 32.48° Asphalt 0 ft / 0 m 0 ft / 0 m
12 115 ft / 35 m 2,903 ft / 885 m 131.00° 122.48° Grass 0 ft / 0 m 0 ft / 0 m
21 75 ft / 23 m 2,933 ft / 894 m 221.00° 212.48° Asphalt 0 ft / 0 m 0 ft / 0 m
30 115 ft / 35 m 2,903 ft / 885 m 311.00° 302.48° Grass 0 ft / 0 m 0 ft / 0 m

Map

Weather


0- 5 10 15 20 25 30 35+ Temperature / ° C

Clouds and Precipitation
Forecast for 2017-12-16 00:00 UTC. Updated 29 minutes ago

Ground ~20,000 ft ~40,000 ft Winds

METAR

CYBU 152129Z AUTO 02009KT 2 1/4SM -SN BKN027 OVC033 M11/M12 A2951 RMK SLP021

TAF

Not found
Warning: Do not use this data for real-world aviation or navigation. No guarantee of current accuracy is given.